createdAt,value
2022-11-09T00:02:26.581Z,11.80
2022-11-09T00:04:54.813Z,6.35
2022-11-09T00:07:22.897Z,8.20
2022-11-09T00:09:51.088Z,6.28
2022-11-09T00:12:31.226Z,10.75
2022-11-09T00:15:09.670Z,5.05
2022-11-09T00:17:37.850Z,9.10
2022-11-09T00:20:15.144Z,8.73
2022-11-09T00:22:43.301Z,9.05
2022-11-09T00:25:11.389Z,6.70
2022-11-09T00:27:42.385Z,7.05
2022-11-09T00:30:15.410Z,9.30
2022-11-09T00:32:44.626Z,7.55
2022-11-09T00:35:12.645Z,8.25
2022-11-09T00:37:40.823Z,6.40
2022-11-09T00:40:10.849Z,6.50
2022-11-09T00:42:38.858Z,7.10
2022-11-09T00:45:07.555Z,10.00
2022-11-09T00:47:37.583Z,7.88
2022-11-09T00:50:06.749Z,7.80
2022-11-09T00:52:34.835Z,12.60
2022-11-09T00:55:02.797Z,11.23
2022-11-09T00:57:30.816Z,14.65
2022-11-09T00:59:58.886Z,10.15
2022-11-09T01:02:27.447Z,5.88
2022-11-09T01:04:57.622Z,7.25
2022-11-09T01:07:26.055Z,16.20
2022-11-09T01:09:57.503Z,9.40
2022-11-09T01:12:25.659Z,7.70
2022-11-09T01:14:54.029Z,14.10
2022-11-09T01:17:30.042Z,8.98
2022-11-09T01:20:03.868Z,10.23
2022-11-09T01:22:31.959Z,8.50
2022-11-09T01:25:00.624Z,10.35
2022-11-09T01:27:28.744Z,9.68
2022-11-09T01:29:59.657Z,8.13
2022-11-09T01:32:27.972Z,6.00
2022-11-09T01:34:58.418Z,11.85
2022-11-09T01:37:45.511Z,9.80
2022-11-09T01:40:22.261Z,8.65
2022-11-09T01:42:50.479Z,7.80
2022-11-09T01:45:37.968Z,8.60
2022-11-09T01:48:15.142Z,9.80
2022-11-09T01:50:54.296Z,11.43
2022-11-09T01:53:28.291Z,15.85
2022-11-09T01:56:01.294Z,9.63
2022-11-09T01:58:33.083Z,11.63
2022-11-09T02:01:02.616Z,11.93
2022-11-09T02:03:34.708Z,15.68
2022-11-09T02:06:07.706Z,13.85
2022-11-09T02:08:37.443Z,13.18
2022-11-09T02:11:09.848Z,15.98
2022-11-09T02:13:39.988Z,18.98
2022-11-09T02:16:09.405Z,16.13
2022-11-09T02:18:40.415Z,19.98
2022-11-09T02:21:10.068Z,17.60
2022-11-09T02:23:38.297Z,16.73
2022-11-09T02:26:10.515Z,20.85
2022-11-09T02:28:40.625Z,22.73
2022-11-09T02:31:14.495Z,29.65
2022-11-09T02:33:45.464Z,28.63
2022-11-09T02:36:14.841Z,27.25
2022-11-09T02:38:42.974Z,20.40
2022-11-09T02:41:13.149Z,18.33
2022-11-09T02:43:42.045Z,17.85
2022-11-09T02:46:12.081Z,17.08
2022-11-09T02:48:40.328Z,13.10
2022-11-09T02:51:08.493Z,20.90
2022-11-09T02:53:38.437Z,14.07
2022-11-09T02:56:07.601Z,16.38
2022-11-09T02:58:35.727Z,19.38
2022-11-09T03:01:04.013Z,12.93
2022-11-09T03:03:32.647Z,13.38
2022-11-09T03:06:01.186Z,18.30
2022-11-09T03:08:29.457Z,16.23
2022-11-09T03:11:03.709Z,18.80
2022-11-09T03:13:31.779Z,16.30
2022-11-09T03:15:59.902Z,14.45
2022-11-09T03:18:28.030Z,17.85
2022-11-09T03:20:56.092Z,18.63
2022-11-09T03:23:24.150Z,19.17
2022-11-09T03:25:52.258Z,21.40
2022-11-09T03:28:22.200Z,30.58
2022-11-09T03:30:50.460Z,25.98
2022-11-09T03:33:18.990Z,24.55
2022-11-09T03:35:47.564Z,24.25
2022-11-09T03:38:15.718Z,24.80
2022-11-09T03:40:43.990Z,18.73
2022-11-09T03:43:12.491Z,18.27
2022-11-09T03:45:42.011Z,20.92
2022-11-09T03:48:10.355Z,20.45
2022-11-09T03:50:40.479Z,17.30
2022-11-09T03:53:09.685Z,16.85
2022-11-09T03:55:37.851Z,16.73
2022-11-09T03:58:07.772Z,17.77
2022-11-09T04:00:36.414Z,18.58
2022-11-09T04:03:06.304Z,13.98
2022-11-09T04:05:34.355Z,16.38
2022-11-09T04:08:02.436Z,15.75
2022-11-09T04:10:30.458Z,16.73
2022-11-09T04:12:58.549Z,17.10
2022-11-09T04:15:26.918Z,17.92
2022-11-09T04:17:59.948Z,25.00
2022-11-09T04:20:31.060Z,24.13
2022-11-09T04:23:03.982Z,17.20
2022-11-09T04:25:34.552Z,23.33
2022-11-09T04:28:03.977Z,18.65
2022-11-09T04:30:33.834Z,18.77
2022-11-09T04:33:02.850Z,21.58
2022-11-09T04:35:34.251Z,17.98
2022-11-09T04:38:03.780Z,21.50
2022-11-09T04:40:33.772Z,26.17
2022-11-09T04:43:02.558Z,20.30
2022-11-09T04:45:30.612Z,20.83
2022-11-09T04:47:59.895Z,21.60
2022-11-09T04:50:28.532Z,26.73
2022-11-09T04:53:07.869Z,24.20
2022-11-09T04:55:36.392Z,22.90
2022-11-09T04:58:05.077Z,20.25
2022-11-09T05:00:36.263Z,19.75
2022-11-09T05:03:05.471Z,24.27
2022-11-09T05:05:34.906Z,22.05
2022-11-09T05:08:05.181Z,23.80
2022-11-09T05:10:33.996Z,28.13
2022-11-09T05:13:03.504Z,21.38
2022-11-09T05:15:32.437Z,20.02
2022-11-09T05:18:01.832Z,29.10
2022-11-09T05:20:30.439Z,21.75
2022-11-09T05:23:17.242Z,21.95
2022-11-09T05:25:47.696Z,22.27
2022-11-09T05:28:16.028Z,28.02
2022-11-09T05:30:44.575Z,21.25
2022-11-09T05:33:12.680Z,23.02
2022-11-09T05:35:40.918Z,22.58
2022-11-09T05:38:11.987Z,25.05
2022-11-09T05:40:42.039Z,21.13
2022-11-09T05:43:23.286Z,19.30
2022-11-09T05:45:52.252Z,22.33
2022-11-09T05:48:23.089Z,18.08
2022-11-09T05:50:51.559Z,21.50
2022-11-09T05:53:20.121Z,23.80
2022-11-09T05:55:48.878Z,20.58
2022-11-09T05:58:18.828Z,19.80
2022-11-09T06:00:47.063Z,22.17
2022-11-09T06:03:18.659Z,20.15
2022-11-09T06:05:49.029Z,21.20
2022-11-09T06:08:17.253Z,18.25
2022-11-09T06:10:45.617Z,19.25
2022-11-09T06:13:30.418Z,23.60
2022-11-09T06:16:00.243Z,15.65
2022-11-09T06:18:32.487Z,22.90
2022-11-09T06:21:09.973Z,18.00
2022-11-09T06:23:40.971Z,17.77
2022-11-09T06:26:11.608Z,21.05
2022-11-09T06:28:42.367Z,22.15
2022-11-09T06:31:13.994Z,18.20
2022-11-09T06:33:42.088Z,16.53
2022-11-09T06:36:11.264Z,17.35
2022-11-09T06:38:39.709Z,21.10
2022-11-09T06:41:07.970Z,18.10
2022-11-09T06:43:38.750Z,18.40
2022-11-09T06:46:11.052Z,22.27
2022-11-09T06:48:39.849Z,18.02
2022-11-09T06:51:08.582Z,21.13
2022-11-09T06:53:37.870Z,19.55
2022-11-09T06:56:08.981Z,25.80
2022-11-09T06:58:37.505Z,23.20
2022-11-09T07:01:11.097Z,26.13
2022-11-09T07:03:40.028Z,20.80
2022-11-09T07:06:11.688Z,16.40
2022-11-09T07:08:42.590Z,14.90
2022-11-09T07:11:12.588Z,15.30
2022-11-09T07:13:41.098Z,15.50
2022-11-09T07:16:12.698Z,15.90
2022-11-09T07:18:40.896Z,19.60
2022-11-09T07:21:13.753Z,20.30
2022-11-09T07:23:42.885Z,20.48
2022-11-09T07:26:14.071Z,19.38
2022-11-09T07:28:42.211Z,18.80
2022-11-09T07:31:11.864Z,15.32
2022-11-09T07:33:41.113Z,15.55
2022-11-09T07:36:09.820Z,14.07
2022-11-09T07:38:37.809Z,11.25
2022-11-09T07:41:05.965Z,12.57
2022-11-09T07:43:34.037Z,12.30
2022-11-09T07:46:04.941Z,10.60
2022-11-09T07:48:34.614Z,10.68
2022-11-09T07:51:03.368Z,12.70
2022-11-09T07:53:31.589Z,11.05
2022-11-09T07:56:01.402Z,12.43
2022-11-09T07:58:29.940Z,13.75
2022-11-09T08:01:01.209Z,13.32
2022-11-09T08:03:30.503Z,13.13
2022-11-09T08:06:01.407Z,10.85
2022-11-09T08:08:29.570Z,10.85
2022-11-09T08:11:04.248Z,10.40
2022-11-09T08:13:34.986Z,10.38
2022-11-09T08:16:10.857Z,10.68
2022-11-09T08:18:43.668Z,9.10
2022-11-09T08:21:15.450Z,10.90
2022-11-09T08:23:43.638Z,7.15
2022-11-09T08:26:17.724Z,9.43
2022-11-09T08:28:48.685Z,7.30
2022-11-09T08:31:27.785Z,5.50
2022-11-09T08:34:02.037Z,7.25
2022-11-09T08:36:39.303Z,6.65
2022-11-09T08:39:15.545Z,7.18
2022-11-09T08:42:00.954Z,6.10
2022-11-09T08:44:32.856Z,4.55
2022-11-09T08:49:47.298Z,2.92
2022-11-09T08:52:37.717Z,2.42
2022-11-09T08:55:18.432Z,4.68
2022-11-09T08:58:05.063Z,3.05
2022-11-09T09:00:36.449Z,6.80
2022-11-09T09:03:07.063Z,3.53
2022-11-09T09:05:36.824Z,3.33
2022-11-09T09:08:11.784Z,2.70
2022-11-09T09:10:40.548Z,5.45
2022-11-09T09:13:10.550Z,4.80
2022-11-09T09:15:38.995Z,3.33
2022-11-09T09:18:07.655Z,3.00
2022-11-09T09:20:36.223Z,3.35
2022-11-09T09:23:06.542Z,6.72
2022-11-09T09:25:35.013Z,4.25
2022-11-09T09:28:05.812Z,3.05
2022-11-09T09:30:38.168Z,4.22
2022-11-09T09:33:06.728Z,2.88
2022-11-09T09:35:34.932Z,4.68
2022-11-09T09:38:03.132Z,3.03
2022-11-09T09:40:38.316Z,2.88
2022-11-09T09:43:06.695Z,3.17
2022-11-09T09:45:40.506Z,2.55
2022-11-09T09:48:26.700Z,3.28
2022-11-09T09:51:00.199Z,3.45
2022-11-09T09:53:33.800Z,3.03
2022-11-09T09:56:07.524Z,3.00
2022-11-09T09:58:40.352Z,2.75
2022-11-09T10:01:15.283Z,2.15
2022-11-09T10:03:43.651Z,4.60
2022-11-09T10:06:27.794Z,2.20
2022-11-09T10:09:06.957Z,3.10
2022-11-09T10:11:48.660Z,2.88
2022-11-09T10:14:36.907Z,5.10
2022-11-09T10:17:14.825Z,5.00
2022-11-09T10:19:58.797Z,4.47
2022-11-09T10:22:37.324Z,3.53
2022-11-09T10:28:13.069Z,2.55
2022-11-09T10:30:42.313Z,2.03
2022-11-09T10:33:18.491Z,2.78
2022-11-09T10:35:50.655Z,4.65
2022-11-09T10:38:24.947Z,2.33
2022-11-09T10:40:55.677Z,2.30
2022-11-09T10:43:27.622Z,1.98
2022-11-09T10:46:05.555Z,4.00
2022-11-09T10:48:35.829Z,2.40
2022-11-09T10:51:09.240Z,3.85
2022-11-09T10:53:37.671Z,1.20
2022-11-09T10:56:20.806Z,2.55
2022-11-09T10:58:53.046Z,1.70
2022-11-09T11:01:23.194Z,2.47
2022-11-09T11:03:53.273Z,2.15
2022-11-09T11:06:31.728Z,1.35
2022-11-09T11:09:16.625Z,1.98
2022-11-09T11:11:58.751Z,2.25
2022-11-09T11:14:33.022Z,2.42
2022-11-09T11:17:01.334Z,2.70
2022-11-09T11:19:35.656Z,3.67
2022-11-09T11:22:23.964Z,4.65
2022-11-09T11:24:57.390Z,5.03
2022-11-09T11:27:31.147Z,5.10
2022-11-09T11:30:06.763Z,3.55
2022-11-09T11:32:35.105Z,2.50
2022-11-09T11:35:05.934Z,3.33
2022-11-09T11:37:47.578Z,4.57
2022-11-09T11:40:21.513Z,2.45
2022-11-09T11:43:08.104Z,6.90
2022-11-09T11:45:42.269Z,4.93
2022-11-09T11:48:36.137Z,3.17
2022-11-09T11:51:11.862Z,2.28
2022-11-09T11:53:56.143Z,1.77
2022-11-09T11:56:28.396Z,4.93
2022-11-09T11:59:37.576Z,4.13
2022-11-09T12:02:34.011Z,2.63
2022-11-09T12:05:46.840Z,2.95
2022-11-09T12:08:21.613Z,4.28
2022-11-09T12:10:57.254Z,5.18
2022-11-09T12:13:56.734Z,2.92
2022-11-09T12:17:02.217Z,4.35
2022-11-09T12:20:22.565Z,3.55
2022-11-09T12:24:04.910Z,3.53
2022-11-09T12:27:11.028Z,5.15
2022-11-09T12:30:08.199Z,2.40
2022-11-09T12:32:59.460Z,3.97
2022-11-09T12:35:51.278Z,5.20
2022-11-09T12:38:32.591Z,3.83
2022-11-09T12:41:25.580Z,2.65
2022-11-09T12:44:17.480Z,3.17
2022-11-09T12:47:06.151Z,2.92
2022-11-09T12:50:00.106Z,4.18
2022-11-09T12:52:55.619Z,2.97
2022-11-09T12:56:13.184Z,2.85
2022-11-09T12:59:54.331Z,4.43
2022-11-09T13:02:35.454Z,3.78
2022-11-09T13:05:12.583Z,6.47
2022-11-09T13:08:51.751Z,4.07
2022-11-09T13:11:53.664Z,3.47
2022-11-09T13:14:41.997Z,1.80
2022-11-09T13:18:03.385Z,2.33
2022-11-09T13:20:59.002Z,1.33
2022-11-09T13:26:45.928Z,4.78
2022-11-09T13:29:25.598Z,2.97
2022-11-09T13:32:05.282Z,4.50
2022-11-09T13:34:49.109Z,1.52
2022-11-09T13:37:47.702Z,5.40
2022-11-09T13:40:43.268Z,1.75
2022-11-09T13:43:21.169Z,3.42
2022-11-09T13:45:56.002Z,5.18
2022-11-09T13:48:37.809Z,2.92
2022-11-09T13:51:08.767Z,2.43
2022-11-09T13:53:55.131Z,2.63
2022-11-09T13:56:35.460Z,2.97
2022-11-09T13:59:14.979Z,3.25
2022-11-09T14:01:51.008Z,4.15
2022-11-09T14:04:24.796Z,5.82
2022-11-09T14:07:02.552Z,2.47
2022-11-09T14:09:45.603Z,5.03
2022-11-09T14:12:29.176Z,5.85
2022-11-09T14:15:20.891Z,1.35
2022-11-09T14:18:02.054Z,4.18
2022-11-09T14:20:39.869Z,3.08
2022-11-09T14:23:17.480Z,2.53
2022-11-09T14:25:46.762Z,2.60
2022-11-09T14:28:36.718Z,6.45
2022-11-09T14:31:27.904Z,2.38
2022-11-09T14:34:04.170Z,4.00
2022-11-09T14:36:47.204Z,4.05
2022-11-09T14:39:34.231Z,2.88
2022-11-09T14:42:06.747Z,6.43
2022-11-09T14:47:41.228Z,3.05
2022-11-09T14:50:17.082Z,4.47
2022-11-09T14:53:03.106Z,4.75
2022-11-09T14:56:33.378Z,3.65
2022-11-09T14:59:17.279Z,3.45
2022-11-09T15:02:18.087Z,3.83
2022-11-09T15:05:06.074Z,2.13
2022-11-09T15:07:40.760Z,3.17
2022-11-09T15:10:30.690Z,4.75
2022-11-09T15:16:09.833Z,8.00
2022-11-09T15:18:51.163Z,4.13
2022-11-09T15:21:44.653Z,4.97
2022-11-09T15:24:46.362Z,6.80
2022-11-09T15:27:44.984Z,2.25
2022-11-09T15:30:46.689Z,4.90
2022-11-09T15:33:49.430Z,4.80
2022-11-09T15:36:30.901Z,2.42
2022-11-09T15:39:09.632Z,5.50
2022-11-09T15:41:38.806Z,4.05
2022-11-09T15:44:10.652Z,5.00
2022-11-09T15:46:45.390Z,4.35
2022-11-09T15:49:19.087Z,3.67
2022-11-09T15:51:47.595Z,4.07
2022-11-09T15:54:16.675Z,2.60
2022-11-09T15:56:45.606Z,3.38
2022-11-09T15:59:24.285Z,4.25
2022-11-09T16:01:53.300Z,6.28
2022-11-09T16:04:23.247Z,8.82
2022-11-09T16:06:51.529Z,4.45
2022-11-09T16:09:19.831Z,5.63
2022-11-09T16:11:52.222Z,3.95
2022-11-09T16:16:50.846Z,9.77
2022-11-09T16:19:19.436Z,3.35
2022-11-09T16:21:49.416Z,3.70
2022-11-09T16:24:17.840Z,7.00
2022-11-09T16:26:46.655Z,5.10
2022-11-09T16:29:15.253Z,4.18
2022-11-09T16:31:52.445Z,6.28
2022-11-09T16:34:21.289Z,5.45
2022-11-09T16:36:56.563Z,4.80
2022-11-09T16:39:27.192Z,5.78
2022-11-09T16:41:56.840Z,6.38
2022-11-09T16:44:37.845Z,5.38
2022-11-09T16:47:09.922Z,5.28
2022-11-09T16:49:38.104Z,8.48
2022-11-09T16:52:08.120Z,4.93
2022-11-09T16:54:38.702Z,4.78
2022-11-09T16:57:08.131Z,5.93
2022-11-09T16:59:36.295Z,4.97
2022-11-09T17:02:04.436Z,7.43
2022-11-09T17:04:33.516Z,6.72
2022-11-09T17:07:01.841Z,5.75
2022-11-09T17:09:37.292Z,5.68
2022-11-09T17:12:06.268Z,5.95
2022-11-09T17:14:34.393Z,4.15
2022-11-09T17:17:02.642Z,5.38
2022-11-09T17:19:33.693Z,4.00
2022-11-09T17:22:01.862Z,8.93
2022-11-09T17:24:31.822Z,4.40
2022-11-09T17:27:00.443Z,5.43
2022-11-09T17:29:28.694Z,6.25
2022-11-09T17:31:57.984Z,7.82
2022-11-09T17:34:26.123Z,4.97
2022-11-09T17:37:09.366Z,4.88
2022-11-09T17:39:38.930Z,4.57
2022-11-09T17:42:07.272Z,6.10
2022-11-09T17:44:36.487Z,7.97
2022-11-09T17:47:05.161Z,7.55
2022-11-09T17:49:33.537Z,6.78
2022-11-09T17:52:01.634Z,6.13
2022-11-09T17:54:35.531Z,5.82
2022-11-09T17:57:06.121Z,5.75
2022-11-09T17:59:34.877Z,5.75
2022-11-09T18:02:02.953Z,8.30
2022-11-09T18:04:31.015Z,5.55
2022-11-09T18:06:59.137Z,7.82
2022-11-09T18:09:40.805Z,6.00
2022-11-09T18:12:10.972Z,9.18
2022-11-09T18:14:46.192Z,7.72
2022-11-09T18:17:14.318Z,6.32
2022-11-09T18:19:42.358Z,6.40
2022-11-09T18:22:12.895Z,6.47
2022-11-09T18:24:41.237Z,6.25
2022-11-09T18:27:10.777Z,6.38
2022-11-09T18:29:38.861Z,6.93
2022-11-09T18:32:09.560Z,7.05
2022-11-09T18:34:37.645Z,7.72
2022-11-09T18:37:05.731Z,8.35
2022-11-09T18:39:33.764Z,6.75
2022-11-09T18:42:01.942Z,11.90
2022-11-09T18:44:31.770Z,9.30
2022-11-09T18:47:05.299Z,7.38
2022-11-09T18:49:37.217Z,9.77
2022-11-09T18:52:05.816Z,11.45
2022-11-09T18:54:35.589Z,7.78
2022-11-09T18:57:03.685Z,8.60
2022-11-09T18:59:34.042Z,7.32
2022-11-09T19:02:02.150Z,11.65
2022-11-09T19:04:30.287Z,10.10
2022-11-09T19:06:58.509Z,9.98
2022-11-09T19:09:42.285Z,8.65
2022-11-09T19:12:11.706Z,10.48
2022-11-09T19:14:41.792Z,6.47
2022-11-09T19:17:13.641Z,10.75
2022-11-09T19:19:42.438Z,12.80
2022-11-09T19:22:16.869Z,8.82
2022-11-09T19:24:48.162Z,12.65
2022-11-09T19:27:16.630Z,10.68
2022-11-09T19:29:46.977Z,12.52
2022-11-09T19:32:17.919Z,8.82
2022-11-09T19:34:48.674Z,8.75
2022-11-09T19:37:16.895Z,15.18
2022-11-09T19:39:47.689Z,9.27
2022-11-09T19:42:15.921Z,7.43
2022-11-09T19:44:45.407Z,6.28
2022-11-09T19:47:13.526Z,8.63
2022-11-09T19:49:41.621Z,8.10
2022-11-09T19:52:09.925Z,7.00
2022-11-09T19:54:39.338Z,10.25
2022-11-09T19:57:07.440Z,9.80
2022-11-09T19:59:37.224Z,8.32
2022-11-09T20:02:07.036Z,6.53
2022-11-09T20:04:35.364Z,5.28
2022-11-09T20:07:03.473Z,10.55
2022-11-09T20:09:32.339Z,6.55
2022-11-09T20:12:20.996Z,6.72
2022-11-09T20:14:49.527Z,8.30
2022-11-09T20:17:21.591Z,6.82
2022-11-09T20:19:51.558Z,6.57
2022-11-09T20:22:19.694Z,6.72
2022-11-09T20:24:47.952Z,7.22
2022-11-09T20:27:16.177Z,17.75
2022-11-09T20:29:44.210Z,6.65
2022-11-09T20:32:16.706Z,6.47
2022-11-09T20:34:50.267Z,16.13
2022-11-09T20:37:21.405Z,6.97
2022-11-09T20:39:49.511Z,4.78
2022-11-09T20:42:18.586Z,5.40
2022-11-09T20:44:49.031Z,5.38
2022-11-09T20:47:35.487Z,4.97
2022-11-09T20:50:08.148Z,6.22
2022-11-09T20:52:36.525Z,8.05
2022-11-09T20:55:05.348Z,5.70
2022-11-09T20:57:33.425Z,6.53
2022-11-09T21:00:01.478Z,7.90
2022-11-09T21:02:29.484Z,9.15
2022-11-09T21:04:57.475Z,5.65
2022-11-09T21:07:26.872Z,5.20
2022-11-09T21:09:59.027Z,9.13
2022-11-09T21:12:27.792Z,7.68
2022-11-09T21:14:56.279Z,9.18
2022-11-09T21:17:26.994Z,7.72
2022-11-09T21:19:55.273Z,4.47
2022-11-09T21:22:43.365Z,4.60
2022-11-09T21:25:30.199Z,8.48
2022-11-09T21:28:15.940Z,11.50
2022-11-09T21:30:44.117Z,8.77
2022-11-09T21:33:12.277Z,7.65
2022-11-09T21:35:43.245Z,10.00
2022-11-09T21:38:11.348Z,5.05
2022-11-09T21:40:40.863Z,9.63
2022-11-09T21:43:08.832Z,5.45
2022-11-09T21:45:38.758Z,6.43
2022-11-09T21:48:07.981Z,5.20
2022-11-09T21:50:36.692Z,9.77
2022-11-09T21:53:05.332Z,5.75
2022-11-09T21:55:35.288Z,8.68
2022-11-09T21:58:04.775Z,11.23
2022-11-09T22:00:32.867Z,8.60
2022-11-09T22:03:03.705Z,7.47
2022-11-09T22:05:33.106Z,11.05
2022-11-09T22:08:01.340Z,8.02
2022-11-09T22:10:29.396Z,7.80
2022-11-09T22:13:14.918Z,6.20
2022-11-09T22:16:01.894Z,9.82
2022-11-09T22:18:49.897Z,6.93
2022-11-09T22:21:18.108Z,9.00
2022-11-09T22:23:46.192Z,8.88
2022-11-09T22:26:14.576Z,11.00
2022-11-09T22:28:42.783Z,10.30
2022-11-09T22:31:13.573Z,7.63
2022-11-09T22:33:41.636Z,8.13
2022-11-09T22:36:13.173Z,7.63
2022-11-09T22:38:41.691Z,8.65
2022-11-09T22:41:13.840Z,5.93
2022-11-09T22:43:43.417Z,5.28
2022-11-09T22:46:16.685Z,6.68
2022-11-09T22:48:45.686Z,6.47
2022-11-09T22:51:15.259Z,8.85
2022-11-09T22:53:48.425Z,6.50
2022-11-09T22:56:18.347Z,6.07
2022-11-09T22:58:46.817Z,9.00
2022-11-09T23:02:03.277Z,5.68
2022-11-09T23:05:05.783Z,9.60
2022-11-09T23:08:17.513Z,6.25
2022-11-09T23:11:22.026Z,7.65
2022-11-09T23:14:15.209Z,9.98
2022-11-09T23:17:55.841Z,9.77
2022-11-09T23:21:00.538Z,8.77
2022-11-09T23:23:33.833Z,7.95
2022-11-09T23:26:31.273Z,6.53
2022-11-09T23:29:10.230Z,9.48
2022-11-09T23:32:03.295Z,7.65
2022-11-09T23:34:41.983Z,8.90
2022-11-09T23:37:27.115Z,11.40
2022-11-09T23:40:15.389Z,9.30
2022-11-09T23:42:58.589Z,12.32
2022-11-09T23:48:44.784Z,5.20
2022-11-09T23:51:32.376Z,12.68
2022-11-09T23:57:29.843Z,8.90
